Ana Sayfa
METAR-TAF:

METAR-TAF

Havaalanları :

Jim Hogg County Airport

Hebbronville, Teksas, Amerika Birleşik Devletleri

Enlem: 27-20N, Boylam: 098-44W, yükseklik: 202 m

Güncel hava durumu gözlemi

Rapor saat 15:35 UTC de 22 dakika önce yapıldı.
Rüzgar güneydan 14 kt ve 19 kt'a kadar ani rüzgarlar
Sıcaklık 31°C
Nem 63%
Basınç 1011 hPa
Görüş mesafesi: 16.1 km
2200 ft yükseklikte parçalı bulutlu
2700 ft yükseklikte parçalı bulutlu

METAR: KHBV 241535Z AUTO 18014G19KT 10SM SCT022 SCT027 31/23 A2986 RMK AO2 T03070227

Saat: 10:57 (15:57 UTC)


TAF: eksik

4.000'den fazla havaalanı için hava durumu gözlemleri ve tahminleri (METAR ve TAF raporları).

Kullanılabilir istasyonlar harita üzerinde sarı ve kırmızı noktalarla gösterilir.

İstasyonun adını görmek için fareyi noktanın üzerinde gezdirin.

Sonrasında hava gözlem ve tahminlerini görmek için tıklayın.

Haritayı değiştirmek için: yaklaştırmak için siyah artı işaretli yeşil düğmeye ve uzaklaştırmak için de eksi işaretli düğmeye hızla tıklayın; bitişik haritalar için yeşil okları kullanın.


METAR-TAF: